M/T Narcea — CQMS — position and weather

sailwx.info

Track history (hours):
 
Tides and Currents Weather Stations Pressure Air Temp Water Temp Dewpoint Dewpoint Depression Visibility Wind Speed Wind Dir Waves Ship Positions

M/T Narcea

Last reported at 2018-May-20 01:30 UTC. Time now 2018-May-25 01:29 UTC.
Position N 39°57' W 009°56'.

Length 100 m; draft 6.6 m.

Type: Tanker. MMSI: 255803560.

Date/timePositionNaut miles runAvg speedWind from/ knotsBaromVisibWave heightAir tempDewpointWater temp
2018-May-20 01:30N 39°57' W 009°56'510.4
2018-May-20 01:00N 39°52' W 009°56'2110.5
2018-May-19 23:02N 39°31' W 009°56'110.7
2018-May-19 22:58N 39°31' W 009°56'610.2
2018-May-19 22:23N 39°25' W 009°56'4 9.8
2018-May-19 21:59N 39°21' W 009°56'5 9.6
2018-May-19 21:29N 39°16' W 009°56'5 9.8
2018-May-19 21:00N 39°11' W 009°56'510.1
2018-May-19 20:30N 39°06' W 009°56'5 9.8
2018-May-19 20:01N 39°01' W 009°56'5 9.8
2018-May-19 19:30N 38°56' W 009°56'5 9.6
2018-May-19 19:00N 38°52' W 009°56'510.0
2018-May-19 18:30N 38°47' W 009°56'5 9.8
2018-May-19 18:01N 38°42' W 009°55'5 9.9
2018-May-19 17:30N 38°37' W 009°54'5 9.6
2018-May-19 17:01N 38°32' W 009°53'5 9.5
2018-May-19 16:30N 38°28' W 009°52'5 9.6
2018-May-19 16:01N 38°23' W 009°50'510.0
2018-May-19 15:31N 38°18' W 009°49'5 9.9
2018-May-19 15:00N 38°13' W 009°47'5 9.7
2018-May-19 14:31N 38°08' W 009°46'5 9.8
2018-May-19 14:01N 38°04' W 009°45'510.2
2018-May-19 13:31N 37°59' W 009°44'510.3
2018-May-19 13:01N 37°54' W 009°42'510.3
2018-May-19 12:30N 37°49' W 009°41'510.2
2018-May-19 12:00N 37°44' W 009°39'510.2
2018-May-19 11:31N 37°39' W 009°38'710.1
2018-May-19 10:50N 37°32' W 009°36'610.0
2018-May-19 10:17N 37°27' W 009°34'310.1
2018-May-19 10:00N 37°24' W 009°34'710.0
2018-May-19 09:19N 37°17' W 009°32'50 9.1
2018-May-19 03:51N 36°37' W 008°55'410.4
2018-May-19 03:30N 36°36' W 008°51'17110.5
2018-May-18 11:08N 36°01' W 005°23'1 8.5
2018-May-18 11:00N 36°02' W 005°21'5 9.2
2018-May-18 10:31N 36°03' W 005°16'  
2018-May-14 19:53N 36°55' E 013°01'29 8.6
2018-May-14 16:28N 36°48' E 013°37'4 8.5
2018-May-14 15:58N 36°47' E 013°42'4 8.2
2018-May-14 15:31N 36°46' E 013°47'4 8.4
2018-May-14 15:00N 36°45' E 013°52'4 8.7
2018-May-14 14:30N 36°44' E 013°57'4 8.8
2018-May-14 14:01N 36°43' E 014°02'4 8.4
2018-May-14 13:30N 36°42' E 014°08'4 8.4
2018-May-14 13:00N 36°41' E 014°13'4 8.5
2018-May-14 12:30N 36°41' E 014°18'4 8.6
2018-May-14 11:59N 36°40' E 014°23'4 8.7
2018-May-14 11:30N 36°39' E 014°28'4 8.5
2018-May-14 11:01N 36°38' E 014°34'4 8.6
2018-May-14 10:30N 36°37' E 014°39'4 8.7
2018-May-14 10:00N 36°36' E 014°44'4 8.7
2018-May-14 09:30N 36°35' E 014°50'5 9.7
2018-May-14 09:00N 36°34' E 014°55'  
2018-May-10 07:58N 36°28' E 014°37'611.8
2018-May-10 07:30N 36°29' E 014°30'611.5
2018-May-10 06:59N 36°30' E 014°23'511.2
2018-May-10 06:30N 36°32' E 014°17'711.4
2018-May-10 05:54N 36°34' E 014°09'511.5
2018-May-10 05:30N 36°35' E 014°03'  
Track history (hours):
 
Tides and Currents Weather Stations Pressure Air Temp Water Temp Dewpoint Dewpoint Depression Visibility Wind Speed Wind Dir Waves Ship Positions

M/T Narcea

Last reported at 2018-May-20 01:30 UTC. Time now 2018-May-25 01:29 UTC.
Position N 39°57' W 009°56'.

Length 100 m; draft 6.6 m.

Type: Tanker. MMSI: 255803560.

Date/timePositionNaut miles runAvg speedWind from/ knotsBaromVisibWave heightAir tempDewpointWater temp
2018-May-20 01:30N 39°57' W 009°56'510.4
2018-May-20 01:00N 39°52' W 009°56'2110.5
2018-May-19 23:02N 39°31' W 009°56'110.7
2018-May-19 22:58N 39°31' W 009°56'610.2
2018-May-19 22:23N 39°25' W 009°56'4 9.8
2018-May-19 21:59N 39°21' W 009°56'5 9.6
2018-May-19 21:29N 39°16' W 009°56'5 9.8
2018-May-19 21:00N 39°11' W 009°56'510.1
2018-May-19 20:30N 39°06' W 009°56'5 9.8
2018-May-19 20:01N 39°01' W 009°56'5 9.8
2018-May-19 19:30N 38°56' W 009°56'5 9.6
2018-May-19 19:00N 38°52' W 009°56'510.0
2018-May-19 18:30N 38°47' W 009°56'5 9.8
2018-May-19 18:01N 38°42' W 009°55'5 9.9
2018-May-19 17:30N 38°37' W 009°54'5 9.6
2018-May-19 17:01N 38°32' W 009°53'5 9.5
2018-May-19 16:30N 38°28' W 009°52'5 9.6
2018-May-19 16:01N 38°23' W 009°50'510.0
2018-May-19 15:31N 38°18' W 009°49'5 9.9
2018-May-19 15:00N 38°13' W 009°47'5 9.7
2018-May-19 14:31N 38°08' W 009°46'5 9.8
2018-May-19 14:01N 38°04' W 009°45'510.2
2018-May-19 13:31N 37°59' W 009°44'510.3
2018-May-19 13:01N 37°54' W 009°42'510.3
2018-May-19 12:30N 37°49' W 009°41'510.2
2018-May-19 12:00N 37°44' W 009°39'510.2
2018-May-19 11:31N 37°39' W 009°38'710.1
2018-May-19 10:50N 37°32' W 009°36'610.0
2018-May-19 10:17N 37°27' W 009°34'310.1
2018-May-19 10:00N 37°24' W 009°34'710.0
2018-May-19 09:19N 37°17' W 009°32'50 9.1
2018-May-19 03:51N 36°37' W 008°55'410.4
2018-May-19 03:30N 36°36' W 008°51'17110.5
2018-May-18 11:08N 36°01' W 005°23'1 8.5
2018-May-18 11:00N 36°02' W 005°21'5 9.2
2018-May-18 10:31N 36°03' W 005°16'  
2018-May-14 19:53N 36°55' E 013°01'29 8.6
2018-May-14 16:28N 36°48' E 013°37'4 8.5
2018-May-14 15:58N 36°47' E 013°42'4 8.2
2018-May-14 15:31N 36°46' E 013°47'4 8.4
2018-May-14 15:00N 36°45' E 013°52'4 8.7
2018-May-14 14:30N 36°44' E 013°57'4 8.8
2018-May-14 14:01N 36°43' E 014°02'4 8.4
2018-May-14 13:30N 36°42' E 014°08'4 8.4
2018-May-14 13:00N 36°41' E 014°13'4 8.5
2018-May-14 12:30N 36°41' E 014°18'4 8.6
2018-May-14 11:59N 36°40' E 014°23'4 8.7
2018-May-14 11:30N 36°39' E 014°28'4 8.5
2018-May-14 11:01N 36°38' E 014°34'4 8.6
2018-May-14 10:30N 36°37' E 014°39'4 8.7
2018-May-14 10:00N 36°36' E 014°44'4 8.7
2018-May-14 09:30N 36°35' E 014°50'5 9.7
2018-May-14 09:00N 36°34' E 014°55'  
2018-May-10 07:58N 36°28' E 014°37'611.8
2018-May-10 07:30N 36°29' E 014°30'611.5
2018-May-10 06:59N 36°30' E 014°23'511.2
2018-May-10 06:30N 36°32' E 014°17'711.4
2018-May-10 05:54N 36°34' E 014°09'511.5
2018-May-10 05:30N 36°35' E 014°03'  

Dump ship's entire track history